Terminal Aerodrome Forecast
Issued by NWS

Home | Current Version | Previous Version | Text Only | Print | Product List | Glossary On
Versions: 1 2 3 4 5 6 7 8 9 10 11 12 13
000
FTUS42 KGSP 291738
TAFAND
TAF
KAND 291738Z 2918/3018 22005KT P6SM SKC
     FM300300 20007KT P6SM BKN110
     FM301100 21007KT P6SM -SHRA OVC025
     FM301400 23007KT P6SM OVC021
     FM301700 26008KT P6SM SCT060=

USA.gov is the U.S. government's official web portal to all federal, state and local government web resources and services.